createdAt,value
2019-05-26T00:03:38.519Z,100742.74
2019-05-26T00:09:03.907Z,100742.38
2019-05-26T00:14:27.029Z,100740.92
2019-05-26T00:19:51.137Z,100731.80
2019-05-26T00:25:14.961Z,100739.91
2019-05-26T00:30:39.254Z,100735.73
2019-05-26T00:36:03.441Z,100739.63
2019-05-26T00:41:26.774Z,100739.88
2019-05-26T00:46:51.020Z,100747.75
2019-05-26T00:52:14.501Z,100736.94
2019-05-26T00:57:38.600Z,100741.66
2019-05-26T01:03:02.706Z,100739.95
2019-05-26T01:08:26.811Z,100740.95
2019-05-26T01:13:50.956Z,100734.58
2019-05-26T01:19:14.699Z,100733.86
2019-05-26T01:24:38.790Z,100724.70
2019-05-26T01:30:02.588Z,100718.47
2019-05-26T01:35:27.304Z,100715.86
2019-05-26T01:41:01.236Z,100722.09
2019-05-26T01:46:25.351Z,100716.94
2019-05-26T01:51:49.246Z,100712.39
2019-05-26T01:57:13.244Z,100709.78
2019-05-26T02:02:37.344Z,100713.47
2019-05-26T02:08:01.433Z,100715.37
2019-05-26T02:13:24.613Z,100705.81
2019-05-26T02:18:48.409Z,100712.05
2019-05-26T02:24:11.890Z,100713.25
2019-05-26T02:29:35.386Z,100712.21
2019-05-26T02:34:59.386Z,100716.94
2019-05-26T02:40:25.237Z,100708.36
2019-05-26T02:45:49.727Z,100710.15
2019-05-26T02:51:14.388Z,100709.36
2019-05-26T02:56:38.236Z,100707.94
2019-05-26T03:02:04.580Z,100702.78
2019-05-26T03:07:27.990Z,100713.59
2019-05-26T03:12:54.531Z,100706.72
2019-05-26T03:18:19.285Z,100716.70
2019-05-26T03:23:45.064Z,100708.36
2019-05-26T03:29:08.996Z,100715.44
2019-05-26T03:34:33.095Z,100717.98
2019-05-26T03:39:57.186Z,100707.88
2019-05-26T03:45:26.516Z,100709.53
2019-05-26T03:50:50.607Z,100706.48
2019-05-26T03:56:14.719Z,100698.16
2019-05-26T04:01:38.822Z,100699.13
2019-05-26T04:07:02.926Z,100697.00
2019-05-26T04:12:28.751Z,100699.38
2019-05-26T04:17:52.654Z,100703.03
2019-05-26T04:23:16.755Z,100703.03
2019-05-26T04:28:40.935Z,100698.52
2019-05-26T04:34:05.168Z,100693.27
2019-05-26T04:39:29.263Z,100692.91
2019-05-26T04:44:53.061Z,100700.78
2019-05-26T04:50:16.874Z,100686.70
2019-05-26T04:55:40.650Z,100687.47
2019-05-26T05:01:04.444Z,100692.88
2019-05-26T05:06:28.544Z,100680.98
2019-05-26T05:11:51.022Z,100683.75
2019-05-26T05:17:15.206Z,100685.31
2019-05-26T05:22:39.304Z,100693.67
2019-05-26T05:28:03.402Z,100698.27
2019-05-26T05:33:27.101Z,100686.73
2019-05-26T05:38:51.200Z,100680.74
2019-05-26T05:44:15.329Z,100678.67
2019-05-26T05:49:39.433Z,100672.58
2019-05-26T05:55:02.885Z,100677.97
2019-05-26T06:00:26.987Z,100685.23
2019-05-26T06:05:51.089Z,100677.12
2019-05-26T06:11:16.965Z,100662.84
2019-05-26T06:16:42.362Z,100665.38
2019-05-26T06:22:06.165Z,100663.66
2019-05-26T06:27:29.883Z,100661.45
2019-05-26T06:32:53.208Z,100663.29
2019-05-26T06:38:17.333Z,100662.69
2019-05-26T06:43:42.971Z,100670.13
2019-05-26T06:49:09.220Z,100660.78
2019-05-26T06:54:34.958Z,100648.26
2019-05-26T06:59:58.962Z,100636.52
2019-05-26T07:05:22.446Z,100634.59
2019-05-26T07:10:46.248Z,100619.13
2019-05-26T07:16:12.463Z,100639.28
2019-05-26T07:21:38.437Z,100626.22
2019-05-26T07:27:04.087Z,100637.87
2019-05-26T07:32:28.826Z,100621.36
2019-05-26T07:37:54.450Z,100623.36
2019-05-26T07:43:20.091Z,100623.26
2019-05-26T07:48:45.714Z,100628.30
2019-05-26T07:54:24.533Z,100634.70
2019-05-26T07:59:39.150Z,100619.36
2019-05-26T08:05:04.784Z,100641.19
2019-05-26T08:10:31.945Z,100637.67
2019-05-26T08:15:56.829Z,100628.03
2019-05-26T08:21:22.313Z,100633.34
2019-05-26T08:26:47.945Z,100638.86
2019-05-26T08:32:15.024Z,100626.23
2019-05-26T08:37:40.740Z,100619.95
2019-05-26T08:43:07.280Z,100619.64
2019-05-26T08:48:32.921Z,100630.44
2019-05-26T08:53:57.826Z,100633.25
2019-05-26T08:59:23.267Z,100625.66
2019-05-26T09:04:47.993Z,100612.08
2019-05-26T09:10:14.265Z,100629.14
2019-05-26T09:15:39.260Z,100609.45
2019-05-26T09:21:03.979Z,100608.56
2019-05-26T09:26:29.637Z,100606.39
2019-05-26T09:31:55.362Z,100628.45
2019-05-26T09:37:20.989Z,100610.18
2019-05-26T09:42:46.688Z,100595.80
2019-05-26T09:48:12.500Z,100600.09
2019-05-26T09:53:38.213Z,100608.30
2019-05-26T09:59:03.874Z,100583.45
2019-05-26T10:04:29.183Z,100592.83
2019-05-26T10:09:53.905Z,100579.58
2019-05-26T10:15:20.448Z,100593.29
2019-05-26T10:20:45.501Z,100604.40
2019-05-26T10:26:10.828Z,100595.80
2019-05-26T10:31:36.260Z,100580.19
2019-05-26T10:37:01.896Z,100578.03
2019-05-26T10:42:26.930Z,100599.13
2019-05-26T10:47:52.557Z,100579.66
2019-05-26T10:53:18.494Z,100599.33
2019-05-26T10:58:44.141Z,100569.67
2019-05-26T11:04:09.465Z,100564.71
2019-05-26T11:09:35.102Z,100552.91
2019-05-26T11:15:00.134Z,100552.89
2019-05-26T11:20:26.376Z,100557.30
2019-05-26T11:25:51.982Z,100565.35
2019-05-26T11:31:17.519Z,100549.70
2019-05-26T11:36:43.153Z,100545.75
2019-05-26T11:42:13.400Z,100552.16
2019-05-26T11:47:31.965Z,100551.55
2019-05-26T11:52:56.381Z,100562.40
2019-05-26T11:58:19.321Z,100556.45
2019-05-26T12:03:42.739Z,100540.23
2019-05-26T12:09:06.529Z,100540.89
2019-05-26T12:14:34.660Z,100521.44
2019-05-26T12:19:54.444Z,100497.84
2019-05-26T12:25:21.195Z,100506.23
2019-05-26T12:30:45.705Z,100515.30
2019-05-26T12:36:11.340Z,100495.06
2019-05-26T12:41:37.387Z,100496.44
2019-05-26T12:47:00.772Z,100493.25
2019-05-26T12:52:24.969Z,100481.88
2019-05-26T12:57:48.966Z,100487.13
2019-05-26T13:03:12.269Z,100479.34
2019-05-26T13:08:36.595Z,100476.50
2019-05-26T13:14:00.148Z,100452.53
2019-05-26T13:19:23.801Z,100446.70
2019-05-26T13:24:47.976Z,100432.06
2019-05-26T13:30:16.689Z,100437.30
2019-05-26T13:35:39.420Z,100439.87
2019-05-26T13:41:03.403Z,100423.95
2019-05-26T13:46:26.555Z,100421.26
2019-05-26T13:51:50.727Z,100429.39
2019-05-26T13:57:14.494Z,100425.62
2019-05-26T14:02:37.545Z,100412.27
2019-05-26T14:08:00.980Z,100415.55
2019-05-26T14:13:26.019Z,100416.13
2019-05-26T14:18:49.436Z,100413.30
2019-05-26T14:24:13.955Z,100414.59
2019-05-26T14:29:38.059Z,100412.22
2019-05-26T14:35:02.825Z,100398.45
2019-05-26T14:40:30.262Z,100390.58
2019-05-26T14:45:54.667Z,100387.80
2019-05-26T14:51:18.769Z,100382.63
2019-05-26T14:56:42.567Z,100376.97
2019-05-26T15:02:06.665Z,100368.11
2019-05-26T15:07:29.529Z,100370.45
2019-05-26T15:12:52.877Z,100370.94
2019-05-26T15:18:16.191Z,100361.95
2019-05-26T15:23:39.378Z,100368.53
2019-05-26T15:29:03.480Z,100383.98
2019-05-26T15:34:27.192Z,100365.63
2019-05-26T15:39:51.688Z,100338.59
2019-05-26T15:45:14.864Z,100353.78
2019-05-26T15:50:37.962Z,100333.14
2019-05-26T15:56:02.069Z,100322.41
2019-05-26T16:01:26.139Z,100322.13
2019-05-26T16:06:49.476Z,100314.17
2019-05-26T16:12:13.106Z,100312.52
2019-05-26T16:17:38.859Z,100328.37
2019-05-26T16:23:02.097Z,100324.84
2019-05-26T16:28:24.691Z,100305.53
2019-05-26T16:33:48.588Z,100321.03
2019-05-26T16:39:12.145Z,100325.09
2019-05-26T16:44:36.224Z,100320.38
2019-05-26T16:50:00.281Z,100315.41
2019-05-26T16:55:24.384Z,100328.98
2019-05-26T17:00:48.184Z,100310.06
2019-05-26T17:06:11.356Z,100314.63
2019-05-26T17:11:37.182Z,100308.88
2019-05-26T17:17:14.240Z,100315.34
2019-05-26T17:22:33.876Z,100314.34
2019-05-26T17:28:01.740Z,100313.34
2019-05-26T17:33:25.105Z,100312.20
2019-05-26T17:38:48.967Z,100294.30
2019-05-26T17:44:12.999Z,100288.29
2019-05-26T17:49:36.400Z,100286.12
2019-05-26T17:55:03.469Z,100292.98
2019-05-26T18:00:30.288Z,100275.08
2019-05-26T18:05:54.385Z,100282.97
2019-05-26T18:11:17.767Z,100287.53
2019-05-26T18:16:41.673Z,100285.91
2019-05-26T18:22:05.155Z,100286.57
2019-05-26T18:27:28.976Z,100287.52
2019-05-26T18:32:50.845Z,100281.77
2019-05-26T18:38:12.662Z,100291.18
2019-05-26T18:43:37.524Z,100291.83
2019-05-26T18:48:59.368Z,100290.26
2019-05-26T18:54:21.118Z,100297.09
2019-05-26T18:59:43.666Z,100305.61
2019-05-26T19:05:05.450Z,100305.27
2019-05-26T19:10:27.604Z,100305.53
2019-05-26T19:15:51.123Z,100302.31
2019-05-26T19:21:12.928Z,100314.30
2019-05-26T19:26:40.779Z,100311.97
2019-05-26T19:32:02.601Z,100304.50
2019-05-26T19:37:24.523Z,100304.28
2019-05-26T19:42:47.845Z,100290.12
2019-05-26T19:48:09.793Z,100300.38
2019-05-26T19:53:31.585Z,100295.48
2019-05-26T19:59:01.759Z,100303.39
2019-05-26T20:04:23.653Z,100300.45
2019-05-26T20:09:45.521Z,100287.67
2019-05-26T20:15:08.909Z,100292.62
2019-05-26T20:20:31.094Z,100298.53
2019-05-26T20:25:52.826Z,100299.17
2019-05-26T20:31:14.572Z,100296.98
2019-05-26T20:36:36.327Z,100301.73
2019-05-26T20:41:58.042Z,100299.91
2019-05-26T20:47:19.801Z,100301.27
2019-05-26T20:52:42.353Z,100304.09
2019-05-26T20:58:04.143Z,100305.46
2019-05-26T21:03:25.858Z,100296.00
2019-05-26T21:08:47.619Z,100307.54
2019-05-26T21:14:09.508Z,100299.31
2019-05-26T21:19:32.050Z,100299.05
2019-05-26T21:24:53.808Z,100292.64
2019-05-26T21:30:17.446Z,100296.08
2019-05-26T21:35:39.261Z,100292.77
2019-05-26T21:41:01.063Z,100305.78
2019-05-26T21:46:23.130Z,100306.39
2019-05-26T21:51:44.891Z,100296.86
2019-05-26T21:57:06.648Z,100295.50
2019-05-26T22:02:28.349Z,100292.91
2019-05-26T22:07:50.032Z,100285.17
2019-05-26T22:13:11.741Z,100289.81
2019-05-26T22:18:33.483Z,100286.37
2019-05-26T22:23:55.199Z,100285.97
2019-05-26T22:29:16.994Z,100281.28
2019-05-26T22:34:38.744Z,100270.81
2019-05-26T22:40:00.467Z,100264.21
2019-05-26T22:45:24.095Z,100259.88
2019-05-26T22:50:45.795Z,100248.34
2019-05-26T22:56:07.588Z,100240.45
2019-05-26T23:01:29.757Z,100236.16
2019-05-26T23:06:51.567Z,100230.02
2019-05-26T23:12:13.382Z,100234.29
2019-05-26T23:17:35.145Z,100230.22
2019-05-26T23:22:56.851Z,100225.38
2019-05-26T23:28:18.707Z,100222.17
2019-05-26T23:33:40.435Z,100224.35
2019-05-26T23:39:02.317Z,100218.21
2019-05-26T23:44:24.045Z,100214.80
2019-05-26T23:49:45.792Z,100212.36
2019-05-26T23:55:07.513Z,100207.30
